Time;durP1;ratioP1;P1;durP2;ratioP2;P2;SDS_P1;SDS_P2;PMS_P1;PMS_P2;Temp;Humidity;BMP_temperature;BMP_pressure;BME280_temperature;BME280_humidity;BME280_pressure;Samples;Min_cycle;Max_cycle;Signal;HPM_P1;HPM_P2
2023/01/13 00:00:58;;;;;;;8.70;2.13;;;8.80;99.90;;;;;;5041124;28;20053;-71
2023/01/13 00:03:23;;;;;;;7.90;1.95;;;8.80;99.90;;;;;;5042798;28;20025;-73
2023/01/13 00:05:49;;;;;;;11.02;2.28;;;8.80;99.90;;;;;;5040051;28;20478;-71
2023/01/13 00:08:14;;;;;;;5.40;1.95;;;8.80;99.90;;;;;;5042417;28;20477;-73
2023/01/13 00:10:40;;;;;;;13.05;2.10;;;8.70;99.90;;;;;;5042804;28;20026;-74
2023/01/13 00:13:06;;;;;;;11.02;2.20;;;8.70;99.90;;;;;;5042627;28;20425;-73
2023/01/13 00:15:32;;;;;;;15.23;2.15;;;8.70;99.90;;;;;;5042517;28;20025;-74
2023/01/13 00:17:58;;;;;;;10.13;1.88;;;8.70;99.90;;;;;;5041555;28;20026;-74
2023/01/13 00:20:23;;;;;;;16.27;2.33;;;8.70;99.90;;;;;;5040900;28;20036;-70
2023/01/13 00:22:55;;;;;;;17.13;2.45;;;8.70;99.90;;;;;;5042464;28;20025;-74
2023/01/13 00:25:21;;;;;;;17.88;1.88;;;8.70;99.90;;;;;;5040537;28;20045;-71
2023/01/13 00:27:46;;;;;;;12.68;2.50;;;8.60;99.90;;;;;;5041661;28;20207;-72
2023/01/13 00:30:13;;;;;;;14.50;2.65;;;8.60;99.90;;;;;;5040127;28;20489;-73
2023/01/13 00:32:42;;;;;;;13.77;2.22;;;8.70;99.90;;;;;;5042072;28;20081;-75
2023/01/13 00:35:08;;;;;;;14.48;1.98;;;8.70;99.90;;;;;;5041940;28;20026;-72
2023/01/13 00:37:36;;;;;;;5.70;1.45;;;8.60;99.90;;;;;;5042015;28;20041;-73
2023/01/13 00:40:03;;;;;;;10.57;2.55;;;8.70;99.90;;;;;;5041932;28;20110;-74
2023/01/13 00:43:28;;;;;;;6.53;1.88;;;8.70;99.90;;;;;;5041368;28;20025;-71
2023/01/13 00:45:23;;;;;;;12.38;1.92;;;8.70;99.90;;;;;;5036776;28;20040;-73
2023/01/13 00:47:49;;;;;;;19.75;2.75;;;8.70;99.90;;;;;;5040623;28;20025;-71
2023/01/13 00:50:15;;;;;;;18.83;2.40;;;8.70;99.90;;;;;;5040494;28;20130;-72
2023/01/13 00:52:40;;;;;;;15.32;2.22;;;8.70;99.90;;;;;;5042211;28;20029;-71
2023/01/13 00:55:06;;;;;;;16.33;2.30;;;8.60;99.90;;;;;;5041737;28;20020;-72
2023/01/13 00:57:33;;;;;;;9.45;2.13;;;8.60;99.90;;;;;;5040617;28;20116;-71
2023/01/13 00:59:59;;;;;;;18.58;3.05;;;8.60;99.90;;;;;;5039430;28;20105;-71
2023/01/13 01:02:24;;;;;;;19.65;2.33;;;8.60;99.90;;;;;;5041539;28;20119;-71
2023/01/13 01:04:50;;;;;;;23.92;3.70;;;8.60;99.90;;;;;;5041507;28;20085;-71
2023/01/13 01:07:15;;;;;;;24.10;3.25;;;8.60;99.90;;;;;;5041747;28;20049;-73
2023/01/13 01:09:41;;;;;;;27.58;3.95;;;8.60;99.90;;;;;;5039333;28;20033;-74
2023/01/13 01:12:06;;;;;;;17.48;2.90;;;8.50;99.90;;;;;;5039668;28;20088;-75
2023/01/13 01:14:32;;;;;;;13.10;2.88;;;8.60;99.90;;;;;;5041569;28;20041;-73
2023/01/13 01:16:57;;;;;;;19.02;3.05;;;8.50;99.90;;;;;;5041400;28;20077;-73
2023/01/13 01:19:23;;;;;;;13.23;3.15;;;8.50;99.90;;;;;;5040145;28;20029;-70
2023/01/13 01:21:49;;;;;;;18.50;2.65;;;8.50;99.90;;;;;;5040274;28;20036;-74
2023/01/13 01:24:15;;;;;;;28.63;3.97;;;8.50;99.90;;;;;;5041561;28;20028;-71
2023/01/13 01:26:41;;;;;;;13.40;2.80;;;8.50;99.90;;;;;;5042158;28;20045;-72
2023/01/13 01:29:07;;;;;;;11.32;2.85;;;8.40;99.90;;;;;;5042143;28;20030;-70
2023/01/13 01:31:33;;;;;;;16.35;2.97;;;8.50;99.90;;;;;;5042182;28;20040;-68
2023/01/13 01:33:59;;;;;;;14.70;3.17;;;8.50;99.90;;;;;;5042058;28;20049;-70
2023/01/13 01:36:28;;;;;;;15.82;2.60;;;8.40;99.90;;;;;;5041716;28;20088;-71
2023/01/13 01:38:56;;;;;;;21.75;2.97;;;8.40;99.90;;;;;;5041829;28;20021;-70
2023/01/13 01:41:26;;;;;;;21.27;2.88;;;8.40;99.90;;;;;;5041123;28;20041;-68
2023/01/13 01:44:01;;;;;;;22.27;2.65;;;8.40;99.90;;;;;;5039432;28;20026;-71
2023/01/13 01:46:31;;;;;;;17.17;2.83;;;8.40;99.90;;;;;;5041944;28;20037;-70
2023/01/13 01:49:11;;;;;;;15.25;2.88;;;8.30;99.90;;;;;;5039927;28;20029;-69
2023/01/13 01:52:07;;;;;;;16.48;2.47;;;8.30;99.90;;;;;;5041737;28;20018;-70
2023/01/13 01:54:51;;;;;;;23.13;3.17;;;8.30;99.90;;;;;;5038147;28;20037;-71
2023/01/13 01:57:29;;;;;;;20.15;3.13;;;8.20;99.90;;;;;;5040122;28;20045;-73
2023/01/13 01:59:56;;;;;;;32.15;4.00;;;8.20;99.90;;;;;;5039752;28;20419;-71
2023/01/13 02:02:22;;;;;;;26.15;2.58;;;8.20;99.90;;;;;;5040335;28;20068;-69
2023/01/13 02:04:51;;;;;;;27.45;3.58;;;8.10;99.90;;;;;;5039212;28;20029;-72
2023/01/13 02:07:21;;;;;;;28.63;3.28;;;8.10;99.90;;;;;;5039792;28;20030;-70
2023/01/13 02:09:47;;;;;;;19.48;2.97;;;8.10;99.90;;;;;;5040297;28;20094;-71
2023/01/13 02:12:28;;;;;;;23.38;3.33;;;8.10;99.90;;;;;;5039926;28;20044;-72
2023/01/13 02:15:01;;;;;;;30.52;4.30;;;8.00;99.90;;;;;;5040407;28;20116;-71
2023/01/13 02:18:01;;;;;;;30.27;3.65;;;8.00;99.90;;;;;;5039589;28;20056;-71
2023/01/13 02:20:45;;;;;;;24.38;3.88;;;8.00;99.90;;;;;;5039751;28;20156;-71
2023/01/13 02:26:51;;;;;;;27.95;3.80;;;7.90;99.90;;;;;;5039762;28;20072;-74
2023/01/13 02:33:02;;;;;;;25.88;3.67;;;7.80;99.90;;;;;;5040393;28;20532;-72
2023/01/13 02:35:46;;;;;;;29.30;3.95;;;7.80;99.90;;;;;;5039774;28;20025;-71
2023/01/13 02:38:14;;;;;;;28.23;4.13;;;7.80;99.90;;;;;;5040337;28;20017;-73
2023/01/13 02:40:49;;;;;;;33.15;3.65;;;7.90;99.90;;;;;;5040607;28;20033;-73
2023/01/13 02:46:26;;;;;;;31.52;3.67;;;7.80;99.90;;;;;;5040785;28;20039;-72
2023/01/13 02:48:54;;;;;;;30.70;5.05;;;7.70;99.90;;;;;;5040978;28;20030;-73
2023/01/13 02:51:24;;;;;;;32.28;4.25;;;7.60;99.90;;;;;;5040794;28;20374;-72
2023/01/13 02:54:04;;;;;;;40.45;4.47;;;7.70;99.90;;;;;;5042471;28;20029;-73
2023/01/13 02:56:33;;;;;;;32.50;4.68;;;7.70;99.90;;;;;;5044861;28;20093;-71
2023/01/13 02:59:00;;;;;;;45.17;4.57;;;7.70;99.90;;;;;;5044675;28;20226;-70
2023/01/13 03:01:26;;;;;;;27.50;4.30;;;7.70;99.90;;;;;;5043830;28;20087;-74
2023/01/13 03:03:51;;;;;;;25.00;3.42;;;7.70;99.90;;;;;;5044760;28;20026;-70
2023/01/13 03:07:04;;;;;;;27.13;3.75;;;7.70;99.90;;;;;;5045090;28;20482;-71
2023/01/13 03:09:42;;;;;;;37.42;4.10;;;7.60;99.90;;;;;;5044719;28;20060;-71
2023/01/13 03:12:35;;;;;;;27.77;3.75;;;7.70;99.90;;;;;;5043919;28;20036;-73
2023/01/13 03:15:23;;;;;;;38.35;5.30;;;7.60;99.90;;;;;;5043983;28;20029;-73
2023/01/13 03:18:20;;;;;;;29.88;3.85;;;7.60;99.90;;;;;;5034120;28;20042;-70
2023/01/13 03:20:59;;;;;;;34.17;4.28;;;7.60;99.90;;;;;;5044885;28;20041;-71
2023/01/13 03:23:46;;;;;;;24.90;4.22;;;7.60;99.90;;;;;;5044685;28;20044;-73
2023/01/13 03:26:20;;;;;;;25.30;3.45;;;7.60;99.90;;;;;;5044632;28;20060;-71
2023/01/13 03:28:56;;;;;;;38.67;4.35;;;7.60;99.90;;;;;;5043164;28;20029;-69
2023/01/13 03:31:30;;;;;;;29.02;3.78;;;7.60;99.90;;;;;;5043243;28;20018;-73
2023/01/13 03:34:07;;;;;;;26.13;4.10;;;7.60;99.90;;;;;;5044721;28;20056;-72
2023/01/13 03:36:38;;;;;;;36.05;4.43;;;7.60;99.90;;;;;;5043332;28;20124;-72
2023/01/13 03:39:11;;;;;;;35.25;4.05;;;7.50;99.90;;;;;;5043109;28;20030;-70
2023/01/13 03:41:53;;;;;;;30.45;4.78;;;7.50;99.90;;;;;;5044521;28;20047;-72
2023/01/13 03:44:32;;;;;;;37.75;3.78;;;7.50;99.90;;;;;;5042608;28;20037;-72
2023/01/13 03:47:30;;;;;;;27.58;4.40;;;7.50;99.90;;;;;;5043141;28;20068;-71
2023/01/13 03:50:07;;;;;;;31.40;4.65;;;7.50;99.90;;;;;;5038577;28;20026;-73
2023/01/13 03:52:43;;;;;;;36.30;5.18;;;7.50;99.90;;;;;;5042691;28;20029;-71
2023/01/13 03:55:13;;;;;;;33.97;5.18;;;7.50;99.90;;;;;;5044146;28;20029;-70
2023/01/13 03:57:47;;;;;;;39.53;5.03;;;7.40;99.90;;;;;;5044338;28;20029;-71
2023/01/13 04:00:14;;;;;;;44.30;6.43;;;7.50;99.90;;;;;;5043783;28;20029;-72
2023/01/13 04:03:15;;;;;;;38.30;5.18;;;7.50;99.90;;;;;;5042520;28;20061;-74
2023/01/13 04:05:46;;;;;;;42.75;4.32;;;7.50;99.90;;;;;;5043345;28;20021;-72
2023/01/13 04:08:26;;;;;;;29.30;4.38;;;7.50;99.90;;;;;;5042487;28;20018;-71
2023/01/13 04:11:09;;;;;;;42.83;5.15;;;7.50;99.90;;;;;;5042539;28;20040;-69
2023/01/13 04:13:48;;;;;;;30.95;4.60;;;7.50;99.90;;;;;;5042616;28;20203;-74
2023/01/13 04:16:14;;;;;;;38.70;4.78;;;7.50;99.90;;;;;;5043830;28;20029;-74
2023/01/13 04:18:40;;;;;;;41.67;5.40;;;7.40;99.90;;;;;;5043430;28;20026;-74
2023/01/13 04:21:07;;;;;;;34.83;5.43;;;7.50;99.90;;;;;;5042563;28;20072;-71
2023/01/13 04:23:33;;;;;;;44.88;5.03;;;7.50;99.90;;;;;;5043327;28;20037;-74
2023/01/13 04:25:59;;;;;;;41.53;5.82;;;7.50;99.90;;;;;;5043628;28;20041;-71
2023/01/13 04:28:25;;;;;;;29.30;4.40;;;7.50;99.90;;;;;;5041591;28;20026;-74
2023/01/13 04:30:51;;;;;;;35.58;4.88;;;7.50;99.90;;;;;;5042572;28;20032;-71
2023/01/13 04:33:18;;;;;;;37.85;4.75;;;7.40;99.90;;;;;;5042002;28;20418;-73
2023/01/13 04:35:45;;;;;;;40.95;5.22;;;7.40;99.90;;;;;;5043543;28;20083;-69
2023/01/13 04:38:16;;;;;;;39.75;5.25;;;7.40;99.90;;;;;;5041813;28;20029;-72
2023/01/13 04:40:42;;;;;;;30.02;5.00;;;7.40;99.90;;;;;;5041806;28;20064;-71
2023/01/13 04:43:08;;;;;;;28.98;4.32;;;7.50;99.90;;;;;;5042067;28;20029;-73
2023/01/13 04:45:34;;;;;;;42.63;5.63;;;7.50;99.90;;;;;;5043087;28;20021;-71
2023/01/13 04:48:00;;;;;;;34.13;4.88;;;7.50;99.90;;;;;;5043493;28;20040;-71
2023/01/13 04:50:25;;;;;;;26.90;4.72;;;7.50;99.90;;;;;;5041425;28;20029;-72
2023/01/13 04:52:52;;;;;;;32.00;5.38;;;7.50;99.90;;;;;;5043192;28;20025;-72
2023/01/13 04:55:19;;;;;;;30.08;4.90;;;7.50;99.90;;;;;;5042658;28;20018;-73
2023/01/13 04:57:45;;;;;;;37.20;5.97;;;7.50;99.90;;;;;;5043059;28;20064;-73
2023/01/13 05:00:14;;;;;;;27.20;4.82;;;7.50;99.90;;;;;;5043122;28;20033;-72
2023/01/13 05:02:40;;;;;;;32.03;4.78;;;7.50;99.90;;;;;;5042685;28;20050;-73
2023/01/13 05:05:06;;;;;;;33.25;5.13;;;7.50;99.90;;;;;;5041788;28;20474;-70
2023/01/13 05:07:33;;;;;;;27.70;4.70;;;7.50;99.90;;;;;;5042558;28;20024;-70
2023/01/13 05:09:58;;;;;;;37.22;5.97;;;7.50;99.90;;;;;;5041386;28;20034;-71
2023/01/13 05:17:56;;;;;;;49.25;5.70;;;7.60;99.90;;;;;;5041627;28;20036;-70
2023/01/13 05:20:22;;;;;;;37.78;5.25;;;7.70;99.90;;;;;;5041017;28;20037;-74
2023/01/13 05:25:34;;;;;;;37.72;5.80;;;7.70;99.90;;;;;;5041916;28;20137;-71
2023/01/13 05:28:00;;;;;;;41.83;5.80;;;7.80;99.90;;;;;;5041842;28;20049;-71
2023/01/13 05:30:31;;;;;;;36.88;5.45;;;7.80;99.90;;;;;;5042279;28;20029;-71
2023/01/13 05:32:57;;;;;;;33.90;5.22;;;7.70;99.90;;;;;;5040986;28;20020;-71
2023/01/13 05:35:23;;;;;;;43.33;5.97;;;7.70;99.90;;;;;;5042353;28;20017;-73
2023/01/13 05:37:49;;;;;;;38.00;5.88;;;7.70;99.90;;;;;;5040907;28;20018;-73
2023/01/13 05:43:19;;;;;;;33.17;5.70;;;7.80;99.90;;;;;;5042242;28;20052;-72
2023/01/13 05:45:50;;;;;;;32.92;6.30;;;7.70;99.90;;;;;;5041949;28;20025;-72
2023/01/13 05:48:17;;;;;;;31.75;5.43;;;7.70;99.90;;;;;;5042161;28;20025;-71
2023/01/13 05:50:43;;;;;;;36.50;5.15;;;7.60;99.90;;;;;;5041969;28;20026;-70
2023/01/13 05:53:09;;;;;;;37.58;5.13;;;7.60;99.90;;;;;;5041590;28;20425;-73
2023/01/13 05:55:43;;;;;;;36.20;5.45;;;7.70;99.90;;;;;;5042277;28;20084;-71
2023/01/13 05:58:10;;;;;;;36.57;4.93;;;7.60;99.90;;;;;;5042083;28;20036;-73
2023/01/13 06:00:36;;;;;;;39.83;5.35;;;7.60;99.90;;;;;;5040500;28;20322;-73
2023/01/13 06:03:02;;;;;;;32.75;4.63;;;7.60;99.90;;;;;;5041651;28;20034;-71
2023/01/13 06:05:29;;;;;;;37.47;6.03;;;7.60;99.90;;;;;;5042035;28;21726;-75
2023/01/13 06:07:59;;;;;;;37.22;5.53;;;7.60;99.90;;;;;;5040033;28;20021;-71
2023/01/13 06:10:25;;;;;;;39.42;5.45;;;7.60;99.90;;;;;;5041514;28;20037;-73
2023/01/13 06:12:50;;;;;;;32.25;5.10;;;7.70;99.90;;;;;;5039917;28;20033;-71
2023/01/13 06:15:16;;;;;;;26.30;5.22;;;7.60;99.90;;;;;;5041748;28;20024;-71
2023/01/13 06:17:42;;;;;;;33.45;6.18;;;7.70;99.90;;;;;;5042036;28;20537;-74
2023/01/13 06:20:09;;;;;;;36.67;5.30;;;7.60;99.90;;;;;;5039563;28;20033;-73
2023/01/13 06:22:42;;;;;;;46.10;5.82;;;7.60;99.90;;;;;;5040004;28;20033;-73
2023/01/13 06:25:23;;;;;;;26.88;4.13;;;7.60;99.90;;;;;;5039874;28;20038;-72
2023/01/13 06:27:53;;;;;;;39.20;5.30;;;7.60;99.90;;;;;;5039250;28;20040;-71
2023/01/13 06:30:19;;;;;;;39.75;5.88;;;7.60;99.90;;;;;;5040107;28;20022;-72
2023/01/13 06:32:49;;;;;;;30.08;4.28;;;7.60;99.90;;;;;;5040043;28;20029;-70
2023/01/13 06:35:19;;;;;;;40.35;5.55;;;7.70;99.90;;;;;;5041609;28;20017;-74
2023/01/13 06:37:49;;;;;;;29.67;4.25;;;7.70;99.90;;;;;;5037372;28;20498;-74
2023/01/13 06:40:16;;;;;;;29.15;4.70;;;7.70;99.90;;;;;;5040663;28;20044;-71
2023/01/13 06:45:28;;;;;;;27.10;4.88;;;7.70;99.90;;;;;;5041335;28;20090;-71
2023/01/13 06:47:53;;;;;;;32.53;5.20;;;7.70;99.90;;;;;;5038514;28;20044;-72
2023/01/13 06:50:19;;;;;;;32.92;4.78;;;7.70;99.90;;;;;;5039941;28;20475;-70
2023/01/13 06:52:45;;;;;;;36.00;4.80;;;7.70;99.90;;;;;;5039564;28;20026;-72
2023/01/13 06:55:11;;;;;;;30.45;5.07;;;7.70;99.90;;;;;;5039805;28;20025;-72
2023/01/13 06:57:49;;;;;;;29.20;4.95;;;7.70;99.90;;;;;;5041129;28;20079;-72
2023/01/13 07:00:22;;;;;;;34.67;5.18;;;7.60;99.90;;;;;;5037959;28;20500;-70
2023/01/13 07:02:48;;;;;;;35.03;5.05;;;7.60;99.90;;;;;;5039574;28;20082;-71
2023/01/13 07:05:14;;;;;;;30.45;4.15;;;7.60;99.90;;;;;;5040548;28;20060;-70
2023/01/13 07:07:40;;;;;;;34.00;4.85;;;7.60;99.90;;;;;;5037491;28;20082;-72
2023/01/13 07:10:10;;;;;;;27.00;4.50;;;7.60;99.90;;;;;;5039939;28;20026;-73
2023/01/13 07:15:21;;;;;;;33.72;5.53;;;7.50;99.90;;;;;;5032897;28;20130;-75
2023/01/13 07:17:47;;;;;;;37.72;5.43;;;7.50;99.90;;;;;;5036773;28;20030;-71
2023/01/13 07:20:12;;;;;;;25.33;4.40;;;7.50;99.90;;;;;;5036108;28;20635;-72
2023/01/13 07:22:38;;;;;;;34.65;4.78;;;7.50;99.90;;;;;;5037514;28;20037;-74
2023/01/13 07:25:04;;;;;;;40.75;5.63;;;7.50;99.90;;;;;;5035665;28;20095;-74
2023/01/13 07:27:30;;;;;;;38.65;4.47;;;7.50;99.90;;;;;;5040838;28;20025;-71
2023/01/13 07:29:55;;;;;;;31.42;5.40;;;7.50;99.90;;;;;;5040868;28;20021;-73
2023/01/13 07:32:21;;;;;;;31.35;4.50;;;7.50;99.90;;;;;;5037791;28;20032;-72
2023/01/13 07:34:52;;;;;;;42.45;5.30;;;7.50;99.90;;;;;;5040781;28;20104;-71
2023/01/13 07:37:18;;;;;;;24.50;4.10;;;7.40;99.90;;;;;;5039342;28;20026;-69
2023/01/13 07:39:45;;;;;;;29.33;3.60;;;7.60;99.90;;;;;;5039480;28;20028;-69
2023/01/13 07:44:56;;;;;;;28.20;4.55;;;7.40;99.90;;;;;;5044485;28;20070;-72
2023/01/13 07:47:22;;;;;;;34.13;4.70;;;7.50;99.90;;;;;;5042289;28;20026;-74
2023/01/13 07:49:48;;;;;;;28.10;4.32;;;7.50;99.90;;;;;;5044308;28;20478;-71
2023/01/13 07:52:14;;;;;;;23.60;3.53;;;7.40;99.90;;;;;;5042369;28;20025;-72
2023/01/13 07:54:39;;;;;;;28.20;4.40;;;7.50;99.90;;;;;;5043542;28;20049;-71
2023/01/13 07:57:05;;;;;;;32.15;4.43;;;7.50;99.90;;;;;;5041215;28;20049;-72
2023/01/13 07:59:30;;;;;;;25.08;3.42;;;7.50;99.90;;;;;;5041353;28;20056;-72
2023/01/13 08:01:56;;;;;;;21.00;4.20;;;7.60;99.90;;;;;;5041571;28;20053;-72
2023/01/13 08:04:22;;;;;;;28.63;4.72;;;7.60;99.90;;;;;;5041416;28;20055;-71
2023/01/13 08:06:50;;;;;;;24.27;3.22;;;7.70;99.90;;;;;;5043704;28;20017;-73
2023/01/13 08:09:16;;;;;;;22.40;4.07;;;7.70;99.90;;;;;;5040980;28;20018;-70
2023/01/13 08:11:42;;;;;;;17.58;4.07;;;7.70;99.90;;;;;;5044030;28;20047;-74
2023/01/13 08:14:07;;;;;;;23.63;3.80;;;7.80;99.90;;;;;;5042032;28;20036;-75
2023/01/13 08:16:33;;;;;;;22.75;4.43;;;7.80;99.90;;;;;;5042339;28;20026;-69
2023/01/13 08:18:59;;;;;;;21.13;3.65;;;7.80;99.90;;;;;;5039953;28;20041;-69
2023/01/13 08:21:24;;;;;;;18.85;3.08;;;7.80;99.90;;;;;;5042150;28;20041;-70
2023/01/13 08:23:50;;;;;;;17.15;2.70;;;7.90;99.90;;;;;;5043083;28;20029;-71
2023/01/13 08:26:17;;;;;;;26.33;3.78;;;7.90;99.90;;;;;;5040534;28;20081;-74
2023/01/13 08:28:43;;;;;;;24.02;3.13;;;7.90;99.90;;;;;;5039300;28;20029;-73
2023/01/13 08:31:13;;;;;;;22.52;2.92;;;7.90;99.90;;;;;;5040528;28;20037;-72
2023/01/13 08:33:39;;;;;;;17.23;2.78;;;7.90;99.90;;;;;;5042497;28;20032;-75
2023/01/13 08:36:08;;;;;;;19.88;2.65;;;7.90;99.90;;;;;;5042311;28;20707;-70
2023/01/13 08:38:35;;;;;;;23.75;2.95;;;7.90;99.90;;;;;;5043399;28;20021;-74
2023/01/13 08:41:06;;;;;;;27.30;3.08;;;8.00;99.90;;;;;;5041564;28;20490;-73
2023/01/13 08:43:32;;;;;;;16.30;2.95;;;8.00;99.90;;;;;;5042036;28;20041;-71
2023/01/13 08:46:00;;;;;;;13.65;2.40;;;8.00;99.90;;;;;;5041412;28;20026;-72
2023/01/13 08:48:27;;;;;;;20.38;3.25;;;8.00;99.90;;;;;;5042769;28;20037;-73
2023/01/13 08:50:59;;;;;;;20.48;2.65;;;8.10;99.90;;;;;;5042814;28;20017;-73
2023/01/13 08:53:25;;;;;;;20.45;3.05;;;8.10;99.90;;;;;;5041115;28;20025;-77
2023/01/13 08:55:51;;;;;;;20.33;4.22;;;8.00;99.90;;;;;;5041536;28;20049;-73
2023/01/13 08:58:16;;;;;;;23.35;3.13;;;8.00;99.90;;;;;;5041302;28;20022;-73
2023/01/13 09:00:42;;;;;;;19.95;3.17;;;8.00;99.90;;;;;;5043022;28;20026;-74
2023/01/13 09:03:08;;;;;;;22.33;4.78;;;8.00;99.90;;;;;;5043417;28;20075;-76
2023/01/13 09:05:34;;;;;;;17.42;2.97;;;8.00;99.90;;;;;;5042938;28;20502;-72
2023/01/13 09:08:00;;;;;;;10.00;2.28;;;8.00;99.90;;;;;;5041456;28;20068;-73
2023/01/13 09:10:25;;;;;;;24.55;2.97;;;8.00;99.90;;;;;;5042834;28;20022;-72
2023/01/13 09:15:35;;;;;;;13.00;2.53;;;8.00;99.90;;;;;;5040834;28;20052;-72
2023/01/13 09:18:01;;;;;;;13.70;2.20;;;8.00;99.90;;;;;;5037615;28;20034;-72
2023/01/13 09:20:27;;;;;;;14.50;2.50;;;8.00;99.90;;;;;;5036978;28;20096;-71
2023/01/13 09:22:52;;;;;;;12.30;2.50;;;8.00;99.90;;;;;;5038207;28;20471;-77
2023/01/13 09:25:18;;;;;;;22.70;2.78;;;8.00;99.90;;;;;;5041513;28;20038;-72
2023/01/13 09:27:43;;;;;;;19.35;2.58;;;8.10;99.90;;;;;;5042360;28;20048;-73
2023/01/13 09:30:10;;;;;;;16.75;2.88;;;8.10;99.90;;;;;;5041286;28;20379;-71
2023/01/13 09:32:37;;;;;;;18.75;3.13;;;8.10;99.90;;;;;;5039592;28;20034;-74
2023/01/13 09:35:05;;;;;;;13.80;2.53;;;8.10;99.90;;;;;;5041075;28;20048;-74
2023/01/13 09:37:36;;;;;;;20.48;3.13;;;8.10;99.90;;;;;;5040598;28;20536;-68
2023/01/13 09:40:11;;;;;;;24.13;3.67;;;8.10;99.90;;;;;;5036945;28;20419;-72
2023/01/13 09:45:40;;;;;;;29.30;2.63;;;8.20;99.90;;;;;;5041110;28;20048;-70
2023/01/13 09:48:21;;;;;;;13.73;2.53;;;8.20;99.90;;;;;;5037716;28;20026;-72
2023/01/13 09:51:08;;;;;;;19.55;2.90;;;8.20;99.90;;;;;;5039173;28;20034;-77
2023/01/13 09:53:43;;;;;;;14.70;3.10;;;8.20;99.90;;;;;;5040270;28;20056;-75
2023/01/13 09:56:09;;;;;;;;;;;8.20;99.90;;;;;;5039312;28;20025;-72
2023/01/13 09:58:35;;;;;;;18.08;2.88;;;8.10;99.90;;;;;;5039717;28;19917;-70
2023/01/13 10:01:19;;;;;;;24.65;4.22;;;8.00;99.90;;;;;;5040917;28;20068;-72
2023/01/13 10:03:45;;;;;;;16.35;3.83;;;8.00;99.90;;;;;;5040659;28;20021;-73
2023/01/13 10:06:14;;;;;;;18.58;3.28;;;7.90;99.90;;;;;;5039593;28;20075;-75
2023/01/13 10:08:45;;;;;;;23.08;3.60;;;7.80;99.90;;;;;;5038964;28;20065;-74
2023/01/13 10:14:21;;;;;;;25.02;3.63;;;7.80;99.90;;;;;;5040036;28;20452;-72
2023/01/13 10:17:31;;;;;;;17.80;3.47;;;7.70;99.90;;;;;;5041534;28;20026;-70
2023/01/13 10:20:07;;;;;;;12.95;2.50;;;7.70;99.90;;;;;;5036312;28;20133;-72
2023/01/13 10:22:45;;;;;;;16.13;2.90;;;7.70;99.90;;;;;;5040748;28;20923;-69
2023/01/13 10:25:20;;;;;;;23.10;3.40;;;7.70;99.90;;;;;;5038732;28;20045;-73
2023/01/13 10:27:49;;;;;;;20.80;3.30;;;7.60;99.90;;;;;;5040344;28;20036;-70
2023/01/13 10:30:32;;;;;;;20.48;3.63;;;7.60;99.90;;;;;;5037476;28;20056;-73
2023/01/13 10:33:13;;;;;;;21.80;3.63;;;7.60;99.90;;;;;;5039673;28;20098;-72
2023/01/13 10:36:14;;;;;;;21.20;3.72;;;7.60;99.90;;;;;;5038925;28;20060;-72
2023/01/13 10:38:45;;;;;;;17.70;3.70;;;7.60;99.90;;;;;;5040195;28;20093;-72
2023/01/13 10:41:14;;;;;;;12.40;3.35;;;7.70;99.90;;;;;;5040145;28;20041;-71
2023/01/13 10:43:42;;;;;;;21.65;2.95;;;7.80;99.90;;;;;;5039160;28;20075;-72
2023/01/13 10:46:16;;;;;;;15.73;2.95;;;7.70;99.90;;;;;;5038141;28;20030;-73
2023/01/13 10:48:50;;;;;;;22.88;3.30;;;7.90;99.90;;;;;;5039916;28;20025;-69
2023/01/13 10:51:20;;;;;;;24.40;3.05;;;7.80;99.90;;;;;;5039204;28;20040;-70
2023/01/13 10:53:52;;;;;;;11.23;3.20;;;7.80;99.90;;;;;;5037673;28;20103;-71
2023/01/13 10:56:20;;;;;;;15.85;2.92;;;7.80;99.90;;;;;;5037976;28;20029;-70
2023/01/13 10:58:52;;;;;;;20.23;3.55;;;7.80;99.90;;;;;;5041102;28;20026;-72
2023/01/13 11:01:26;;;;;;;16.88;2.75;;;7.80;99.90;;;;;;5039329;28;20038;-72
2023/01/13 11:03:55;;;;;;;17.92;3.90;;;7.80;99.90;;;;;;5038973;28;20034;-72
2023/01/13 11:06:24;;;;;;;17.67;3.35;;;7.90;99.90;;;;;;5036950;28;20049;-72
2023/01/13 11:08:54;;;;;;;14.07;3.67;;;7.90;99.90;;;;;;5036626;28;20041;-70
2023/01/13 11:11:37;;;;;;;18.95;4.45;;;7.90;99.90;;;;;;5037300;28;21025;-73
2023/01/13 11:16:58;;;;;;;20.20;2.88;;;8.00;99.90;;;;;;5041995;28;20488;-70
2023/01/13 11:19:33;;;;;;;21.52;3.90;;;8.00;99.90;;;;;;5041568;28;20052;-70
2023/01/13 11:22:29;;;;;;;22.63;4.00;;;8.00;99.90;;;;;;5041327;28;20048;-73
2023/01/13 11:25:03;;;;;;;21.77;3.92;;;7.90;99.90;;;;;;5042915;28;20057;-71
2023/01/13 11:27:40;;;;;;;20.75;3.42;;;7.90;99.90;;;;;;5041083;28;20029;-71
2023/01/13 11:30:17;;;;;;;24.17;3.88;;;7.90;99.90;;;;;;5043417;28;20033;-74
2023/01/13 11:33:01;;;;;;;18.55;3.85;;;7.80;99.90;;;;;;5043253;28;20085;-71
2023/01/13 11:35:30;;;;;;;19.13;3.25;;;7.80;99.90;;;;;;5042337;28;20033;-70
2023/01/13 11:38:14;;;;;;;26.05;3.97;;;7.80;99.90;;;;;;5041944;28;20979;-71
2023/01/13 11:40:44;;;;;;;18.67;4.20;;;7.80;99.90;;;;;;5044444;28;20042;-73
2023/01/13 11:43:36;;;;;;;22.13;3.42;;;7.80;99.90;;;;;;5040202;28;20048;-70
2023/01/13 11:46:02;;;;;;;16.77;2.83;;;7.80;99.90;;;;;;5040959;28;20037;-71
2023/01/13 11:48:41;;;;;;;25.48;4.85;;;7.80;99.90;;;;;;5041483;28;20158;-74
2023/01/13 11:51:13;;;;;;;22.70;3.72;;;7.80;99.90;;;;;;5042799;28;20029;-71
2023/01/13 11:54:02;;;;;;;30.75;4.55;;;7.70;99.90;;;;;;5041239;28;20102;-70
2023/01/13 11:56:33;;;;;;;21.48;3.95;;;7.70;99.90;;;;;;5043654;28;20035;-70
2023/01/13 11:59:16;;;;;;;25.33;3.60;;;7.70;99.90;;;;;;5034371;28;20029;-70
2023/01/13 12:01:48;;;;;;;19.05;3.10;;;7.70;99.90;;;;;;5038945;28;20173;-71
2023/01/13 12:04:26;;;;;;;18.05;3.63;;;7.70;99.90;;;;;;5036519;28;20037;-71
2023/01/13 12:07:00;;;;;;;33.30;3.40;;;7.60;99.90;;;;;;5040142;28;20033;-72
2023/01/13 12:09:36;;;;;;;23.00;3.72;;;7.60;99.90;;;;;;5038317;28;20037;-72
2023/01/13 12:12:32;;;;;;;23.20;2.80;;;7.50;99.90;;;;;;5042716;28;20029;-71
2023/01/13 12:15:07;;;;;;;23.55;3.30;;;7.50;99.90;;;;;;5041085;28;20037;-70
2023/01/13 12:17:54;;;;;;;13.70;2.90;;;7.50;99.90;;;;;;5037900;28;20038;-70
2023/01/13 12:20:37;;;;;;;15.73;2.72;;;7.50;99.90;;;;;;5041216;28;20053;-69
2023/01/13 12:23:12;;;;;;;12.90;2.33;;;7.50;99.90;;;;;;5039888;28;20041;-69
2023/01/13 12:25:48;;;;;;;17.55;2.60;;;7.50;99.90;;;;;;5038507;28;20113;-70
2023/01/13 12:28:19;;;;;;;10.05;2.47;;;7.50;99.90;;;;;;5043274;28;20034;-72
2023/01/13 12:30:50;;;;;;;23.13;3.70;;;7.50;99.90;;;;;;5042149;28;20120;-70
2023/01/13 12:33:46;;;;;;;18.20;2.83;;;7.50;99.90;;;;;;5041593;28;20021;-74
2023/01/13 12:36:39;;;;;;;19.48;3.47;;;7.50;99.90;;;;;;5039177;28;20037;-76
2023/01/13 12:39:10;;;;;;;18.75;2.83;;;7.50;99.90;;;;;;5040065;28;20036;-72
2023/01/13 12:45:09;;;;;;;15.48;3.35;;;7.50;99.90;;;;;;5039058;28;20030;-69
2023/01/13 12:47:44;;;;;;;29.55;4.28;;;7.60;99.90;;;;;;5041823;28;20049;-71
2023/01/13 12:50:22;;;;;;;16.52;3.17;;;7.60;99.90;;;;;;5042733;28;20032;-67
2023/01/13 12:52:49;;;;;;;19.27;3.25;;;7.60;99.90;;;;;;5042687;28;20051;-73
2023/01/13 12:55:18;;;;;;;16.45;2.80;;;7.60;99.90;;;;;;5042628;28;20112;-70
2023/01/13 12:57:59;;;;;;;17.05;3.20;;;7.60;99.90;;;;;;5039513;28;20033;-71
2023/01/13 13:00:40;;;;;;;23.25;3.70;;;7.70;99.90;;;;;;5039537;28;20666;-68
2023/01/13 13:03:11;;;;;;;15.93;2.65;;;7.70;99.90;;;;;;5041677;28;20121;-73
2023/01/13 13:05:43;;;;;;;22.33;3.53;;;7.70;99.90;;;;;;5040810;28;20039;-73
2023/01/13 13:08:45;;;;;;;12.60;2.70;;;7.70;99.90;;;;;;5041087;28;20033;-70
2023/01/13 13:14:05;;;;;;;26.52;5.03;;;7.60;99.90;;;;;;5036656;28;20509;-69
2023/01/13 13:16:50;;;;;;;21.23;3.30;;;7.60;99.90;;;;;;5040201;28;20049;-71
2023/01/13 13:19:18;;;;;;;20.60;3.65;;;7.50;99.90;;;;;;5040489;28;20120;-71
2023/01/13 13:22:16;;;;;;;23.83;3.22;;;7.50;99.90;;;;;;5039862;28;20092;-70
2023/01/13 13:25:02;;;;;;;21.55;3.78;;;7.50;99.90;;;;;;5040642;28;20029;-71
2023/01/13 13:27:43;;;;;;;16.98;3.75;;;7.40;99.90;;;;;;5040530;28;20068;-71
2023/01/13 13:30:28;;;;;;;18.77;3.28;;;7.40;99.90;;;;;;5040050;28;20124;-71
2023/01/13 13:33:18;;;;;;;19.98;3.65;;;7.40;99.90;;;;;;5041098;28;20029;-71
2023/01/13 13:36:10;;;;;;;25.90;3.80;;;7.40;99.90;;;;;;5040849;28;20061;-71
2023/01/13 13:47:16;;;;;;;17.50;3.92;;;7.50;99.90;;;;;;5039386;28;20033;-70
2023/01/13 13:49:51;;;;;;;19.20;3.85;;;7.60;99.90;;;;;;5039528;28;20025;-73
2023/01/13 13:52:22;;;;;;;17.50;3.22;;;7.70;99.90;;;;;;5040241;28;20025;-72
2023/01/13 13:54:54;;;;;;;23.83;3.92;;;7.70;99.90;;;;;;5040457;28;20083;-69
2023/01/13 13:57:32;;;;;;;12.85;2.67;;;7.70;99.90;;;;;;5040508;28;20395;-71
2023/01/13 13:59:59;;;;;;;19.83;3.00;;;7.70;99.90;;;;;;5038776;28;20089;-72
2023/01/13 14:02:35;;;;;;;17.00;3.08;;;7.90;99.90;;;;;;5040031;28;20056;-70
2023/01/13 14:05:26;;;;;;;12.45;2.72;;;7.90;99.90;;;;;;5039691;28;20037;-70
2023/01/13 14:07:58;;;;;;;14.10;3.20;;;7.90;99.90;;;;;;5040073;28;20033;-70